Time,TemperatureF,DewpointF,PressureIn,WindDirection,WindDirectionDegrees,WindSpeedMPH,WindSpeedGustMPH,Humidity,HourlyPrecipIn,Conditions,Clouds,dailyrainin,SoftwareType,DateUTC
2013-07-27 06:32:00,71.0,70.0,29.89,ENE,61,0.0,4.0,96,0.00,,,1.60,,2013-07-27 11:32:00,
2013-07-27 06:44:00,71.0,70.0,29.89,ENE,61,0.0,4.0,96,0.00,,,1.60,,2013-07-27 11:44:00,
2013-07-27 06:53:00,71.0,70.0,29.88,ENE,61,3.0,5.0,96,0.00,,,1.60,,2013-07-27 11:53:00,
2013-07-27 07:02:00,71.0,70.0,29.88,ENE,61,3.0,5.0,96,0.00,,,1.60,,2013-07-27 12:02:00,
2013-07-27 07:12:00,71.0,70.0,29.89,ESE,112,3.0,7.0,96,0.01,,,1.61,,2013-07-27 12:12:00,
2013-07-27 07:22:00,72.0,71.0,29.89,SE,125,1.0,8.0,96,0.01,,,1.61,,2013-07-27 12:22:00,
2013-07-27 07:33:00,72.0,71.0,29.89,SE,125,1.0,8.0,96,0.01,,,1.61,,2013-07-27 12:33:00,
2013-07-27 07:43:00,72.0,71.0,29.89,ESE,109,1.0,3.0,96,0.01,,,1.61,,2013-07-27 12:43:00,
2013-07-27 07:52:00,72.0,71.0,29.89,ENE,78,0.0,5.0,96,0.01,,,1.61,,2013-07-27 12:52:00,
2013-07-27 08:02:00,72.0,71.0,29.89,ENE,78,0.0,5.0,96,0.01,,,1.61,,2013-07-27 13:02:00,
2013-07-27 08:12:00,72.0,71.0,29.88,East,89,1.0,5.0,96,0.00,,,1.61,,2013-07-27 13:12:00,
2013-07-27 08:22:00,72.0,71.0,29.88,SE,130,2.0,5.0,96,0.00,,,1.61,,2013-07-27 13:22:00,
2013-07-27 08:32:00,72.0,71.0,29.88,SE,130,2.0,5.0,96,0.00,,,1.61,,2013-07-27 13:32:00,
2013-07-27 08:44:00,70.0,68.0,29.89,SE,128,5.0,12.0,95,0.01,,,1.62,,2013-07-27 13:44:00,
2013-07-27 08:53:00,70.0,68.0,29.89,SE,134,4.0,7.0,95,0.02,,,1.63,,2013-07-27 13:53:00,
2013-07-27 09:02:00,70.0,68.0,29.89,SE,134,4.0,7.0,95,0.02,,,1.63,,2013-07-27 14:02:00,
2013-07-27 09:12:00,70.0,69.0,29.88,ESE,105,4.0,8.0,96,0.06,,,1.67,,2013-07-27 14:12:00,
2013-07-27 09:22:00,70.0,69.0,29.88,SE,136,3.0,7.0,96,0.13,,,1.74,,2013-07-27 14:22:00,
2013-07-27 09:32:00,70.0,69.0,29.88,SE,136,3.0,7.0,96,0.13,,,1.74,,2013-07-27 14:32:00,
2013-07-27 09:44:00,71.0,70.0,29.88,SE,140,4.0,8.0,96,0.13,,,1.75,,2013-07-27 14:44:00,
2013-07-27 10:02:00,72.0,71.0,29.88,SE,130,2.0,5.0,96,0.13,,,1.76,,2013-07-27 15:02:00,
2013-07-27 10:12:00,72.0,70.0,29.88,ESE,109,1.0,5.0,95,0.09,,,1.76,,2013-07-27 15:12:00,
2013-07-27 10:22:00,72.0,70.0,29.89,ESE,107,1.0,3.0,95,0.02,,,1.76,,2013-07-27 15:22:00,
2013-07-27 10:33:00,72.0,70.0,29.89,ESE,107,1.0,3.0,95,0.02,,,1.76,,2013-07-27 15:33:00,
2013-07-27 10:44:00,72.0,70.0,29.89,NE,51,2.0,4.0,95,0.01,,,1.76,,2013-07-27 15:44:00,
2013-07-27 11:02:00,73.0,71.0,29.89,NNE,30,2.0,5.0,95,0.00,,,1.76,,2013-07-27 16:02:00,
2013-07-27 11:12:00,73.0,71.0,29.90,NNE,26,2.0,7.0,94,0.00,,,1.76,,2013-07-27 16:12:00,
2013-07-27 11:23:00,73.0,71.0,29.90,NNE,23,4.0,6.0,94,0.00,,,1.76,,2013-07-27 16:23:00,
2013-07-27 11:33:00,73.0,71.0,29.90,NNE,23,4.0,6.0,94,0.00,,,1.76,,2013-07-27 16:33:00,
2013-07-27 11:43:00,73.0,71.0,29.90,NE,49,3.0,7.0,95,0.00,,,1.76,,2013-07-27 16:43:00,
2013-07-27 11:53:00,73.0,71.0,29.90,NE,44,4.0,7.0,95,0.00,,,1.76,,2013-07-27 16:53:00,
2013-07-27 12:02:00,73.0,71.0,29.90,NE,44,4.0,7.0,95,0.00,,,1.76,,2013-07-27 17:02:00,
2013-07-27 12:12:00,74.0,72.0,29.89,NE,46,3.0,7.0,95,0.00,,,1.76,,2013-07-27 17:12:00,
2013-07-27 12:22:00,74.0,72.0,29.90,NNE,21,4.0,7.0,93,0.00,,,1.76,,2013-07-27 17:22:00,
2013-07-27 12:32:00,74.0,72.0,29.90,NNE,21,4.0,7.0,93,0.00,,,1.76,,2013-07-27 17:32:00,
2013-07-27 12:43:00,74.0,71.0,29.90,NE,37,5.0,9.0,91,0.00,,,1.76,,2013-07-27 17:43:00,
2013-07-27 12:53:00,75.0,72.0,29.90,NNE,14,3.0,6.0,91,0.00,,,1.76,,2013-07-27 17:53:00,
2013-07-27 13:02:00,75.0,72.0,29.90,NNE,14,3.0,6.0,91,0.00,,,1.76,,2013-07-27 18:02:00,
2013-07-27 13:12:00,76.0,73.0,29.91,NNE,14,4.0,6.0,90,0.00,,,1.76,,2013-07-27 18:12:00,
2013-07-27 13:22:00,76.0,73.0,29.90,NNE,13,4.0,7.0,90,0.00,,,1.76,,2013-07-27 18:22:00,
2013-07-27 13:33:00,76.0,73.0,29.90,NNE,13,4.0,7.0,90,0.00,,,1.76,,2013-07-27 18:33:00,
2013-07-27 13:43:00,77.0,74.0,29.89,North,5,4.0,7.0,89,0.00,,,1.76,,2013-07-27 18:43:00,
2013-07-27 14:02:00,78.0,73.0,29.89,NNE,14,3.0,7.0,86,0.00,,,1.76,,2013-07-27 19:02:00,
2013-07-27 14:12:00,79.0,74.0,29.89,NNE,24,4.0,9.0,84,0.00,,,1.76,,2013-07-27 19:12:00,
2013-07-27 14:22:00,80.0,74.0,29.89,North,5,5.0,10.0,81,0.00,,,1.76,,2013-07-27 19:22:00,
2013-07-27 14:32:00,80.0,74.0,29.89,North,5,5.0,10.0,81,0.00,,,1.76,,2013-07-27 19:32:00,
2013-07-27 14:43:00,80.0,73.0,29.88,NNE,32,4.0,10.0,80,0.00,,,1.76,,2013-07-27 19:43:00,
2013-07-27 14:53:00,82.0,74.0,29.88,NNE,21,5.0,11.0,77,0.00,,,1.76,,2013-07-27 19:53:00,
2013-07-27 15:02:00,82.0,74.0,29.88,NNE,21,5.0,11.0,77,0.00,,,1.76,,2013-07-27 20:02:00,
2013-07-27 15:12:00,82.0,74.0,29.88,NE,40,4.0,8.0,77,0.00,,,1.76,,2013-07-27 20:12:00,
2013-07-27 15:23:00,82.0,73.0,29.87,NE,38,5.0,10.0,74,0.00,,,1.76,,2013-07-27 20:23:00,
2013-07-27 15:32:00,82.0,73.0,29.87,NE,38,5.0,10.0,74,0.00,,,1.76,,2013-07-27 20:32:00,
2013-07-27 15:43:00,84.0,75.0,29.87,North,351,5.0,12.0,74,0.00,,,1.76,,2013-07-27 20:43:00,
2013-07-27 16:03:00,83.0,74.0,29.86,North,9,4.0,9.0,74,0.00,,,1.76,,2013-07-27 21:03:00,
2013-07-27 16:12:00,82.0,74.0,29.86,North,355,5.0,10.0,76,0.00,,,1.76,,2013-07-27 21:12:00,
2013-07-27 16:33:00,82.0,74.0,29.87,North,5,4.0,7.0,76,0.00,,,1.76,,2013-07-27 21:33:00,
2013-07-27 16:43:00,82.0,74.0,29.87,North,355,5.0,9.0,77,0.00,,,1.76,,2013-07-27 21:43:00,
2013-07-27 17:02:00,81.0,74.0,29.87,NNE,12,5.0,8.0,79,0.00,,,1.76,,2013-07-27 22:02:00,
2013-07-27 17:12:00,81.0,74.0,29.87,NNE,13,4.0,9.0,79,0.00,,,1.76,,2013-07-27 22:12:00,
2013-07-27 17:33:00,81.0,73.0,29.87,NNW,346,5.0,8.0,78,0.00,,,1.76,,2013-07-27 22:33:00,
2013-07-27 17:43:00,80.0,73.0,29.87,NNW,335,7.0,12.0,79,0.00,,,1.76,,2013-07-27 22:43:00,
2013-07-27 18:02:00,80.0,74.0,29.88,North,350,7.0,12.0,81,0.00,,,1.76,,2013-07-27 23:02:00,
2013-07-27 18:12:00,80.0,74.0,29.88,North,11,4.0,7.0,82,0.00,,,1.76,,2013-07-27 23:12:00,
2013-07-27 18:32:00,80.0,74.0,29.88,North,349,3.0,6.0,83,0.00,,,1.76,,2013-07-27 23:32:00,
2013-07-27 18:44:00,80.0,74.0,29.88,NNW,343,5.0,10.0,81,0.00,,,1.76,,2013-07-27 23:44:00,
2013-07-27 19:02:00,79.0,73.0,29.88,North,5,4.0,8.0,81,0.00,,,1.76,,2013-07-28 00:02:00,
2013-07-27 19:12:00,80.0,73.0,29.88,NNW,348,3.0,8.0,80,0.00,,,1.76,,2013-07-28 00:12:00,
2013-07-27 19:22:00,80.0,73.0,29.88,NNW,348,3.0,8.0,80,0.00,,,1.76,,2013-07-28 00:22:00,
2013-07-27 19:32:00,80.0,73.0,29.88,North,5,4.0,7.0,79,0.00,,,1.76,,2013-07-28 00:32:00,
2013-07-27 19:44:00,79.0,72.0,29.89,NNE,17,4.0,8.0,79,0.00,,,1.76,,2013-07-28 00:44:00,
2013-07-27 20:02:00,79.0,72.0,29.89,North,349,4.0,7.0,80,0.00,,,1.76,,2013-07-28 01:02:00,
2013-07-27 20:12:00,78.0,72.0,29.88,NNW,344,2.0,7.0,83,0.00,,,1.76,,2013-07-28 01:12:00,
2013-07-27 20:22:00,78.0,72.0,29.88,NNW,344,2.0,7.0,83,0.00,,,1.76,,2013-07-28 01:22:00,
2013-07-27 20:32:00,77.0,72.0,29.88,North,355,1.0,4.0,84,0.00,,,1.76,,2013-07-28 01:32:00,
2013-07-27 20:43:00,76.0,72.0,29.88,NNW,328,0.0,3.0,86,0.00,,,1.76,,2013-07-28 01:43:00,
2013-07-27 20:53:00,76.0,72.0,29.88,NNW,328,0.0,3.0,86,0.00,,,1.76,,2013-07-28 01:53:00,
2013-07-27 21:03:00,75.0,71.0,29.89,NNW,343,1.0,3.0,87,0.00,,,1.76,,2013-07-28 02:03:00,
2013-07-27 21:12:00,75.0,71.0,29.89,NNW,346,0.0,3.0,88,0.00,,,1.76,,2013-07-28 02:12:00,
2013-07-27 21:22:00,75.0,71.0,29.89,NNW,346,0.0,3.0,88,0.00,,,1.76,,2013-07-28 02:22:00,
2013-07-27 21:32:00,74.0,71.0,29.90,NNW,346,1.0,3.0,89,0.00,,,1.76,,2013-07-28 02:32:00,
2013-07-27 21:53:00,74.0,71.0,29.91,NNW,344,1.0,4.0,90,0.00,,,1.76,,2013-07-28 02:53:00,
2013-07-27 22:02:00,74.0,71.0,29.91,NNW,347,1.0,3.0,90,0.00,,,1.76,,2013-07-28 03:02:00,
2013-07-27 22:10:00,73.0,70.0,29.91,North,349,1.0,3.0,91,0.00,,,1.76,,2013-07-28 03:10:00,
2013-07-27 22:12:00,73.0,70.0,29.91,NNW,344,1.0,4.0,90,0.00,,,1.76,,2013-07-28 03:12:00,
2013-07-27 22:22:00,73.0,70.0,29.91,NNW,344,1.0,4.0,90,0.00,,,1.76,,2013-07-28 03:22:00,
2013-07-27 22:32:00,73.0,70.0,29.91,North,349,1.0,3.0,91,0.00,,,1.76,,2013-07-28 03:32:00,
2013-07-27 22:42:00,73.0,70.0,29.91,North,349,1.0,3.0,91,0.00,,,1.76,,2013-07-28 03:42:00,
2013-07-27 22:53:00,73.0,70.0,29.91,North,349,1.0,3.0,91,0.00,,,1.76,,2013-07-28 03:53:00,
2013-07-27 23:02:00,73.0,70.0,29.91,North,349,1.0,3.0,91,0.00,,,1.76,,2013-07-28 04:02:00,